sensor_id;sensor_type;location;lat;lon;timestamp;pressure;altitude;pressure_sealevel;temperature;humidity
50105;BME280;47690;39.202;-77.198;2023-04-24T00:01:52;100154.78;;;37.40;7.81
50105;BME280;47690;39.202;-77.198;2023-04-24T00:04:37;100156.41;;;38.76;6.80
50105;BME280;47690;39.202;-77.198;2023-04-24T00:07:43;100175.97;;;38.17;7.46
50105;BME280;47690;39.202;-77.198;2023-04-24T00:10:20;100180.91;;;37.66;7.82
50105;BME280;47690;39.202;-77.198;2023-04-24T00:13:50;100190.84;;;37.93;7.24
50105;BME280;47690;39.202;-77.198;2023-04-24T00:16:23;100188.75;;;37.61;7.82
50105;BME280;47690;39.202;-77.198;2023-04-24T00:19:15;100185.97;;;37.41;8.16
50105;BME280;47690;39.202;-77.198;2023-04-24T00:21:46;100186.50;;;37.16;8.18
50105;BME280;47690;39.202;-77.198;2023-04-24T00:24:17;100183.19;;;37.07;7.86
50105;BME280;47690;39.202;-77.198;2023-04-24T00:26:47;100194.28;;;37.04;7.85
50105;BME280;47690;39.202;-77.198;2023-04-24T00:29:16;100201.72;;;37.02;7.94
50105;BME280;47690;39.202;-77.198;2023-04-24T00:31:45;100210.19;;;36.99;7.84
50105;BME280;47690;39.202;-77.198;2023-04-24T00:34:17;100213.06;;;37.04;8.46
50105;BME280;47690;39.202;-77.198;2023-04-24T00:37:01;100226.22;;;37.27;7.95
50105;BME280;47690;39.202;-77.198;2023-04-24T00:39:33;100217.28;;;37.13;8.12
50105;BME280;47690;39.202;-77.198;2023-04-24T00:42:02;100222.44;;;37.15;8.13
50105;BME280;47690;39.202;-77.198;2023-04-24T00:44:31;100228.66;;;37.15;8.16
50105;BME280;47690;39.202;-77.198;2023-04-24T00:47:04;100226.16;;;37.14;8.05
50105;BME280;47690;39.202;-77.198;2023-04-24T00:49:38;100233.00;;;37.16;8.03
50105;BME280;47690;39.202;-77.198;2023-04-24T00:52:11;100228.50;;;37.30;7.60
50105;BME280;47690;39.202;-77.198;2023-04-24T00:54:41;100226.41;;;37.19;8.00
50105;BME280;47690;39.202;-77.198;2023-04-24T00:57:14;100237.53;;;37.16;7.64
50105;BME280;47690;39.202;-77.198;2023-04-24T00:59:44;100238.34;;;37.10;8.06
50105;BME280;47690;39.202;-77.198;2023-04-24T01:02:15;100248.56;;;36.99;7.82
50105;BME280;47690;39.202;-77.198;2023-04-24T01:04:49;100256.81;;;36.98;8.01
50105;BME280;47690;39.202;-77.198;2023-04-24T01:07:21;100265.88;;;36.90;8.20
50105;BME280;47690;39.202;-77.198;2023-04-24T01:09:54;100271.34;;;38.15;6.96
50105;BME280;47690;39.202;-77.198;2023-04-24T01:12:25;100274.31;;;37.22;7.75
50105;BME280;47690;39.202;-77.198;2023-04-24T01:15:26;100270.47;;;37.38;7.39
50105;BME280;47690;39.202;-77.198;2023-04-24T01:18:21;100272.91;;;37.33;7.74
50105;BME280;47690;39.202;-77.198;2023-04-24T01:27:13;100299.66;;;37.55;7.25
50105;BME280;47690;39.202;-77.198;2023-04-24T01:30:43;100302.28;;;37.41;7.06
50105;BME280;47690;39.202;-77.198;2023-04-24T01:33:16;100303.47;;;36.97;7.78
50105;BME280;47690;39.202;-77.198;2023-04-24T01:35:47;100309.31;;;36.72;8.05
50105;BME280;47690;39.202;-77.198;2023-04-24T01:38:31;100310.88;;;36.88;7.73
50105;BME280;47690;39.202;-77.198;2023-04-24T01:43:14;100310.69;;;37.25;7.25
50105;BME280;47690;39.202;-77.198;2023-04-24T01:49:32;100326.56;;;37.20;7.43
50105;BME280;47690;39.202;-77.198;2023-04-24T01:53:01;100330.09;;;36.92;7.40
50105;BME280;47690;39.202;-77.198;2023-04-24T01:55:55;100333.56;;;36.85;7.31
50105;BME280;47690;39.202;-77.198;2023-04-24T01:59:13;100337.94;;;36.65;7.50
50105;BME280;47690;39.202;-77.198;2023-04-24T02:01:49;100346.56;;;36.60;7.53
50105;BME280;47690;39.202;-77.198;2023-04-24T02:04:53;100346.59;;;36.67;7.39
50105;BME280;47690;39.202;-77.198;2023-04-24T02:07:49;100347.13;;;36.55;7.80
50105;BME280;47690;39.202;-77.198;2023-04-24T02:10:23;100342.22;;;36.37;7.98
50105;BME280;47690;39.202;-77.198;2023-04-24T02:12:57;100346.84;;;36.28;8.01
50105;BME280;47690;39.202;-77.198;2023-04-24T02:15:43;100355.53;;;36.30;8.11
50105;BME280;47690;39.202;-77.198;2023-04-24T02:18:17;100354.72;;;36.30;8.07
50105;BME280;47690;39.202;-77.198;2023-04-24T02:20:49;100361.09;;;36.29;7.76
50105;BME280;47690;39.202;-77.198;2023-04-24T02:23:20;100373.50;;;36.52;7.51
50105;BME280;47690;39.202;-77.198;2023-04-24T02:25:57;100373.03;;;36.26;7.49
50105;BME280;47690;39.202;-77.198;2023-04-24T02:29:12;100377.13;;;36.87;7.26
50105;BME280;47690;39.202;-77.198;2023-04-24T02:31:58;100369.59;;;36.54;7.67
50105;BME280;47690;39.202;-77.198;2023-04-24T02:34:33;100376.50;;;36.42;7.69
50105;BME280;47690;39.202;-77.198;2023-04-24T02:37:02;100371.56;;;36.23;7.73
50105;BME280;47690;39.202;-77.198;2023-04-24T02:39:36;100366.56;;;36.86;7.39
50105;BME280;47690;39.202;-77.198;2023-04-24T02:42:07;100362.53;;;36.97;7.68
50105;BME280;47690;39.202;-77.198;2023-04-24T02:44:36;100366.81;;;36.91;7.54
50105;BME280;47690;39.202;-77.198;2023-04-24T02:47:10;100362.38;;;37.05;7.58
50105;BME280;47690;39.202;-77.198;2023-04-24T02:49:40;100364.84;;;37.00;7.52
50105;BME280;47690;39.202;-77.198;2023-04-24T02:52:17;100367.88;;;36.97;7.13
50105;BME280;47690;39.202;-77.198;2023-04-24T02:54:55;100373.66;;;36.94;7.37
50105;BME280;47690;39.202;-77.198;2023-04-24T02:57:25;100365.25;;;36.75;7.70
50105;BME280;47690;39.202;-77.198;2023-04-24T02:59:53;100363.53;;;36.67;7.65
50105;BME280;47690;39.202;-77.198;2023-04-24T03:02:22;100369.88;;;36.59;7.31
50105;BME280;47690;39.202;-77.198;2023-04-24T03:04:52;100365.22;;;36.53;7.75
50105;BME280;47690;39.202;-77.198;2023-04-24T03:07:22;100358.94;;;36.61;7.30
50105;BME280;47690;39.202;-77.198;2023-04-24T03:09:52;100366.00;;;36.69;7.29
50105;BME280;47690;39.202;-77.198;2023-04-24T03:12:21;100370.13;;;36.65;7.81
50105;BME280;47690;39.202;-77.198;2023-04-24T03:14:51;100376.31;;;36.65;7.45
50105;BME280;47690;39.202;-77.198;2023-04-24T03:17:20;100375.69;;;36.63;7.71
50105;BME280;47690;39.202;-77.198;2023-04-24T03:19:49;100383.63;;;36.56;7.56
50105;BME280;47690;39.202;-77.198;2023-04-24T03:22:19;100377.91;;;36.59;7.61
50105;BME280;47690;39.202;-77.198;2023-04-24T03:24:48;100377.00;;;36.52;7.49
50105;BME280;47690;39.202;-77.198;2023-04-24T03:27:18;100375.28;;;36.44;7.74
50105;BME280;47690;39.202;-77.198;2023-04-24T03:30:01;100386.94;;;36.36;7.44
50105;BME280;47690;39.202;-77.198;2023-04-24T03:32:43;100388.56;;;36.31;7.38
50105;BME280;47690;39.202;-77.198;2023-04-24T03:35:17;100391.06;;;36.32;7.28
50105;BME280;47690;39.202;-77.198;2023-04-24T03:37:47;100384.34;;;36.21;7.63
50105;BME280;47690;39.202;-77.198;2023-04-24T03:40:53;100397.09;;;36.41;7.55
50105;BME280;47690;39.202;-77.198;2023-04-24T03:43:40;100397.16;;;36.26;7.57
50105;BME280;47690;39.202;-77.198;2023-04-24T03:46:10;100392.56;;;36.20;7.90
50105;BME280;47690;39.202;-77.198;2023-04-24T03:48:50;100396.31;;;35.89;7.72
50105;BME280;47690;39.202;-77.198;2023-04-24T03:51:23;100387.25;;;35.30;8.11
50105;BME280;47690;39.202;-77.198;2023-04-24T03:53:56;100394.50;;;35.21;8.35
50105;BME280;47690;39.202;-77.198;2023-04-24T03:56:29;100406.59;;;35.17;8.25
50105;BME280;47690;39.202;-77.198;2023-04-24T03:58:57;100405.66;;;35.09;8.29
50105;BME280;47690;39.202;-77.198;2023-04-24T04:01:33;100397.44;;;35.11;8.40
50105;BME280;47690;39.202;-77.198;2023-04-24T04:04:11;100386.41;;;35.14;7.98
50105;BME280;47690;39.202;-77.198;2023-04-24T04:06:42;100393.97;;;35.10;8.50
50105;BME280;47690;39.202;-77.198;2023-04-24T04:09:12;100396.63;;;35.10;8.20
50105;BME280;47690;39.202;-77.198;2023-04-24T04:11:42;100387.63;;;35.03;8.24
50105;BME280;47690;39.202;-77.198;2023-04-24T04:14:22;100380.81;;;35.00;8.18
50105;BME280;47690;39.202;-77.198;2023-04-24T04:16:52;100383.47;;;35.00;8.31
50105;BME280;47690;39.202;-77.198;2023-04-24T04:19:23;100389.16;;;34.97;8.40
50105;BME280;47690;39.202;-77.198;2023-04-24T04:21:57;100370.34;;;35.06;8.19
50105;BME280;47690;39.202;-77.198;2023-04-24T04:24:35;100381.25;;;35.04;8.44
50105;BME280;47690;39.202;-77.198;2023-04-24T04:27:07;100380.91;;;35.07;8.04
50105;BME280;47690;39.202;-77.198;2023-04-24T04:29:45;100370.22;;;35.07;8.16
50105;BME280;47690;39.202;-77.198;2023-04-24T04:32:21;100377.56;;;35.05;8.15
50105;BME280;47690;39.202;-77.198;2023-04-24T04:34:53;100372.31;;;34.97;8.17
50105;BME280;47690;39.202;-77.198;2023-04-24T04:37:24;100380.88;;;34.92;8.24
50105;BME280;47690;39.202;-77.198;2023-04-24T04:40:09;100384.53;;;35.14;8.08
50105;BME280;47690;39.202;-77.198;2023-04-24T04:42:51;100388.28;;;35.05;8.19
50105;BME280;47690;39.202;-77.198;2023-04-24T04:45:25;100382.94;;;35.05;8.14
50105;BME280;47690;39.202;-77.198;2023-04-24T04:48:22;100387.25;;;35.06;8.32
50105;BME280;47690;39.202;-77.198;2023-04-24T04:50:52;100386.66;;;34.81;8.41
50105;BME280;47690;39.202;-77.198;2023-04-24T04:53:23;100387.19;;;34.76;8.32
50105;BME280;47690;39.202;-77.198;2023-04-24T04:55:52;100388.53;;;34.72;8.65
50105;BME280;47690;39.202;-77.198;2023-04-24T04:58:29;100382.31;;;34.80;8.45
50105;BME280;47690;39.202;-77.198;2023-04-24T05:01:01;100377.50;;;34.75;8.37
50105;BME280;47690;39.202;-77.198;2023-04-24T05:03:37;100368.63;;;34.74;8.50
50105;BME280;47690;39.202;-77.198;2023-04-24T05:06:10;100373.75;;;34.84;8.55
50105;BME280;47690;39.202;-77.198;2023-04-24T05:08:42;100366.44;;;34.78;8.56
50105;BME280;47690;39.202;-77.198;2023-04-24T05:11:35;100367.53;;;34.84;8.35
50105;BME280;47690;39.202;-77.198;2023-04-24T05:14:05;100357.63;;;34.69;8.64
50105;BME280;47690;39.202;-77.198;2023-04-24T05:16:39;100359.50;;;34.69;8.58
50105;BME280;47690;39.202;-77.198;2023-04-24T05:19:11;100350.44;;;34.70;8.70
50105;BME280;47690;39.202;-77.198;2023-04-24T05:21:47;100346.94;;;34.69;8.63
50105;BME280;47690;39.202;-77.198;2023-04-24T05:24:21;100344.63;;;34.66;8.34
50105;BME280;47690;39.202;-77.198;2023-04-24T05:27:15;100348.63;;;34.70;8.27
50105;BME280;47690;39.202;-77.198;2023-04-24T05:29:45;100351.38;;;34.54;8.61
50105;BME280;47690;39.202;-77.198;2023-04-24T05:32:15;100346.78;;;34.47;8.49
50105;BME280;47690;39.202;-77.198;2023-04-24T05:35:09;100347.56;;;34.56;8.52
50105;BME280;47690;39.202;-77.198;2023-04-24T05:37:38;100357.75;;;34.53;8.56
50105;BME280;47690;39.202;-77.198;2023-04-24T05:40:14;100353.09;;;34.55;8.61
50105;BME280;47690;39.202;-77.198;2023-04-24T05:42:47;100340.38;;;34.57;8.48
50105;BME280;47690;39.202;-77.198;2023-04-24T05:45:15;100335.84;;;34.57;8.39
50105;BME280;47690;39.202;-77.198;2023-04-24T05:47:53;100341.00;;;34.59;8.58
50105;BME280;47690;39.202;-77.198;2023-04-24T05:50:23;100334.47;;;34.62;8.42
50105;BME280;47690;39.202;-77.198;2023-04-24T05:52:52;100333.84;;;34.59;8.99
50105;BME280;47690;39.202;-77.198;2023-04-24T05:55:28;100321.31;;;34.75;8.57
50105;BME280;47690;39.202;-77.198;2023-04-24T05:58:01;100315.59;;;34.63;8.68
50105;BME280;47690;39.202;-77.198;2023-04-24T06:00:31;100319.19;;;34.70;8.67
50105;BME280;47690;39.202;-77.198;2023-04-24T06:03:06;100313.91;;;34.62;8.50
50105;BME280;47690;39.202;-77.198;2023-04-24T06:05:37;100320.31;;;34.53;8.52
50105;BME280;47690;39.202;-77.198;2023-04-24T06:08:06;100334.84;;;34.50;8.83
50105;BME280;47690;39.202;-77.198;2023-04-24T06:10:39;100322.41;;;34.42;8.79
50105;BME280;47690;39.202;-77.198;2023-04-24T06:13:11;100322.56;;;34.41;8.94
50105;BME280;47690;39.202;-77.198;2023-04-24T06:15:51;100327.59;;;34.44;8.73
50105;BME280;47690;39.202;-77.198;2023-04-24T06:18:29;100326.81;;;34.35;8.89
50105;BME280;47690;39.202;-77.198;2023-04-24T06:20:59;100318.63;;;34.37;8.82
50105;BME280;47690;39.202;-77.198;2023-04-24T06:23:29;100314.94;;;34.38;8.70
50105;BME280;47690;39.202;-77.198;2023-04-24T06:26:03;100314.44;;;34.57;8.65
50105;BME280;47690;39.202;-77.198;2023-04-24T06:28:33;100326.00;;;34.58;8.72
50105;BME280;47690;39.202;-77.198;2023-04-24T06:31:03;100319.13;;;34.32;9.09
50105;BME280;47690;39.202;-77.198;2023-04-24T06:33:32;100312.19;;;34.23;9.36
50105;BME280;47690;39.202;-77.198;2023-04-24T06:36:01;100327.72;;;34.19;8.58
50105;BME280;47690;39.202;-77.198;2023-04-24T06:38:33;100319.41;;;34.14;8.85
50105;BME280;47690;39.202;-77.198;2023-04-24T06:41:03;100314.59;;;34.09;9.00
50105;BME280;47690;39.202;-77.198;2023-04-24T06:43:33;100315.13;;;34.04;9.19
50105;BME280;47690;39.202;-77.198;2023-04-24T06:46:02;100312.59;;;34.11;9.05
50105;BME280;47690;39.202;-77.198;2023-04-24T06:48:34;100311.25;;;34.54;8.94
50105;BME280;47690;39.202;-77.198;2023-04-24T06:51:03;100305.88;;;34.15;9.43
50105;BME280;47690;39.202;-77.198;2023-04-24T06:53:33;100314.63;;;34.01;9.11
50105;BME280;47690;39.202;-77.198;2023-04-24T06:56:02;100321.00;;;34.55;8.84
50105;BME280;47690;39.202;-77.198;2023-04-24T06:58:32;100321.56;;;34.65;8.83
50105;BME280;47690;39.202;-77.198;2023-04-24T07:01:01;100322.69;;;34.71;8.86
50105;BME280;47690;39.202;-77.198;2023-04-24T07:03:30;100326.00;;;34.73;9.19
50105;BME280;47690;39.202;-77.198;2023-04-24T07:05:59;100331.81;;;34.77;9.04
50105;BME280;47690;39.202;-77.198;2023-04-24T07:08:32;100331.47;;;34.80;9.15
50105;BME280;47690;39.202;-77.198;2023-04-24T07:11:01;100333.84;;;34.74;9.09
50105;BME280;47690;39.202;-77.198;2023-04-24T07:13:31;100337.38;;;34.75;8.96
50105;BME280;47690;39.202;-77.198;2023-04-24T07:16:00;100349.03;;;34.82;9.21
50105;BME280;47690;39.202;-77.198;2023-04-24T07:18:29;100345.97;;;34.85;9.01
50105;BME280;47690;39.202;-77.198;2023-04-24T07:20:59;100352.50;;;34.68;9.06
50105;BME280;47690;39.202;-77.198;2023-04-24T07:23:27;100351.94;;;34.72;9.25
50105;BME280;47690;39.202;-77.198;2023-04-24T07:25:57;100350.09;;;34.73;9.33
50105;BME280;47690;39.202;-77.198;2023-04-24T07:28:25;100351.88;;;34.81;9.28
50105;BME280;47690;39.202;-77.198;2023-04-24T07:30:54;100353.69;;;34.80;9.38
50105;BME280;47690;39.202;-77.198;2023-04-24T07:33:24;100351.50;;;34.84;9.37
50105;BME280;47690;39.202;-77.198;2023-04-24T07:35:53;100353.19;;;34.62;9.43
50105;BME280;47690;39.202;-77.198;2023-04-24T07:38:23;100341.88;;;34.74;9.28
50105;BME280;47690;39.202;-77.198;2023-04-24T07:40:56;100345.66;;;34.80;9.31
50105;BME280;47690;39.202;-77.198;2023-04-24T07:43:25;100340.22;;;34.73;9.16
50105;BME280;47690;39.202;-77.198;2023-04-24T07:45:54;100346.28;;;34.67;9.34
50105;BME280;47690;39.202;-77.198;2023-04-24T07:48:27;100353.31;;;34.68;9.14
50105;BME280;47690;39.202;-77.198;2023-04-24T07:50:56;100359.25;;;34.55;9.14
50105;BME280;47690;39.202;-77.198;2023-04-24T07:53:25;100365.19;;;34.42;9.21
50105;BME280;47690;39.202;-77.198;2023-04-24T07:55:58;100353.16;;;34.38;9.50
50105;BME280;47690;39.202;-77.198;2023-04-24T07:58:29;100345.81;;;34.40;9.61
50105;BME280;47690;39.202;-77.198;2023-04-24T08:00:58;100346.53;;;34.34;9.82
50105;BME280;47690;39.202;-77.198;2023-04-24T08:03:28;100345.16;;;34.38;9.44
50105;BME280;47690;39.202;-77.198;2023-04-24T08:05:58;100343.06;;;34.25;9.69
50105;BME280;47690;39.202;-77.198;2023-04-24T08:08:28;100342.97;;;34.18;9.51
50105;BME280;47690;39.202;-77.198;2023-04-24T08:11:01;100337.50;;;34.35;9.47
50105;BME280;47690;39.202;-77.198;2023-04-24T08:13:31;100348.94;;;34.21;9.76
50105;BME280;47690;39.202;-77.198;2023-04-24T08:16:00;100347.81;;;34.38;9.88
50105;BME280;47690;39.202;-77.198;2023-04-24T08:18:29;100350.91;;;34.50;9.67
50105;BME280;47690;39.202;-77.198;2023-04-24T08:20:58;100350.69;;;34.60;9.58
50105;BME280;47690;39.202;-77.198;2023-04-24T08:23:29;100350.81;;;34.67;9.40
50105;BME280;47690;39.202;-77.198;2023-04-24T08:26:02;100343.31;;;34.62;9.72
50105;BME280;47690;39.202;-77.198;2023-04-24T08:28:31;100335.13;;;34.64;9.53
50105;BME280;47690;39.202;-77.198;2023-04-24T08:31:00;100339.34;;;34.58;9.78
50105;BME280;47690;39.202;-77.198;2023-04-24T08:33:29;100333.38;;;34.56;9.77
50105;BME280;47690;39.202;-77.198;2023-04-24T08:36:06;100340.22;;;34.73;9.89
50105;BME280;47690;39.202;-77.198;2023-04-24T08:38:37;100350.06;;;34.58;9.74
50105;BME280;47690;39.202;-77.198;2023-04-24T08:41:11;100357.63;;;34.69;9.72
50105;BME280;47690;39.202;-77.198;2023-04-24T08:43:41;100355.56;;;35.18;9.40
50105;BME280;47690;39.202;-77.198;2023-04-24T08:46:13;100345.63;;;34.42;9.94
50105;BME280;47690;39.202;-77.198;2023-04-24T08:48:43;100339.28;;;34.19;9.98
50105;BME280;47690;39.202;-77.198;2023-04-24T08:51:17;100348.81;;;34.14;10.07
50105;BME280;47690;39.202;-77.198;2023-04-24T08:53:52;100362.66;;;34.17;10.24
50105;BME280;47690;39.202;-77.198;2023-04-24T08:56:22;100359.16;;;34.17;9.93
50105;BME280;47690;39.202;-77.198;2023-04-24T08:58:53;100357.84;;;34.13;9.99
50105;BME280;47690;39.202;-77.198;2023-04-24T09:01:25;100354.06;;;33.99;10.09
50105;BME280;47690;39.202;-77.198;2023-04-24T09:03:57;100351.72;;;33.96;10.18
50105;BME280;47690;39.202;-77.198;2023-04-24T09:06:27;100348.09;;;33.88;10.10
50105;BME280;47690;39.202;-77.198;2023-04-24T09:09:00;100340.38;;;33.93;10.19
50105;BME280;47690;39.202;-77.198;2023-04-24T09:11:31;100336.22;;;33.91;10.03
50105;BME280;47690;39.202;-77.198;2023-04-24T09:14:03;100332.03;;;33.97;10.16
50105;BME280;47690;39.202;-77.198;2023-04-24T09:16:33;100327.50;;;33.97;10.38
50105;BME280;47690;39.202;-77.198;2023-04-24T09:19:03;100320.97;;;34.00;10.07
50105;BME280;47690;39.202;-77.198;2023-04-24T09:21:34;100317.81;;;33.96;10.33
50105;BME280;47690;39.202;-77.198;2023-04-24T09:24:09;100313.00;;;33.91;10.57
50105;BME280;47690;39.202;-77.198;2023-04-24T09:26:45;100314.50;;;33.94;10.13
50105;BME280;47690;39.202;-77.198;2023-04-24T09:29:17;100319.38;;;33.90;10.12
50105;BME280;47690;39.202;-77.198;2023-04-24T09:31:48;100330.47;;;34.11;10.26
50105;BME280;47690;39.202;-77.198;2023-04-24T09:34:26;100323.06;;;33.89;10.55
50105;BME280;47690;39.202;-77.198;2023-04-24T09:36:55;100333.09;;;33.79;10.38
50105;BME280;47690;39.202;-77.198;2023-04-24T09:39:24;100331.13;;;33.73;10.55
50105;BME280;47690;39.202;-77.198;2023-04-24T09:41:57;100327.16;;;33.69;10.18
50105;BME280;47690;39.202;-77.198;2023-04-24T09:44:28;100325.50;;;33.68;10.46
50105;BME280;47690;39.202;-77.198;2023-04-24T09:46:58;100335.50;;;33.65;10.65
50105;BME280;47690;39.202;-77.198;2023-04-24T09:49:30;100336.03;;;33.61;10.66
50105;BME280;47690;39.202;-77.198;2023-04-24T09:54:33;100333.88;;;33.56;10.25
50105;BME280;47690;39.202;-77.198;2023-04-24T09:57:07;100344.72;;;33.55;10.95
50105;BME280;47690;39.202;-77.198;2023-04-24T09:59:42;100337.19;;;33.58;11.00
50105;BME280;47690;39.202;-77.198;2023-04-24T10:02:17;100339.38;;;33.55;10.60
50105;BME280;47690;39.202;-77.198;2023-04-24T10:04:55;100341.34;;;33.61;10.77
50105;BME280;47690;39.202;-77.198;2023-04-24T10:07:32;100343.56;;;33.49;10.82
50105;BME280;47690;39.202;-77.198;2023-04-24T10:10:01;100343.09;;;33.37;10.74
50105;BME280;47690;39.202;-77.198;2023-04-24T10:12:31;100342.94;;;33.30;10.76
50105;BME280;47690;39.202;-77.198;2023-04-24T10:15:01;100340.59;;;33.27;10.52
50105;BME280;47690;39.202;-77.198;2023-04-24T10:17:33;100346.94;;;33.26;10.61
50105;BME280;47690;39.202;-77.198;2023-04-24T10:20:03;100363.81;;;33.27;10.82
50105;BME280;47690;39.202;-77.198;2023-04-24T10:22:36;100365.50;;;33.19;10.43
50105;BME280;47690;39.202;-77.198;2023-04-24T10:25:06;100374.81;;;33.15;10.87
50105;BME280;47690;39.202;-77.198;2023-04-24T10:27:37;100371.66;;;33.11;10.77
50105;BME280;47690;39.202;-77.198;2023-04-24T10:30:07;100384.84;;;33.13;10.97
50105;BME280;47690;39.202;-77.198;2023-04-24T10:32:37;100407.69;;;32.99;10.66
50105;BME280;47690;39.202;-77.198;2023-04-24T10:35:08;100407.84;;;33.06;10.86
50105;BME280;47690;39.202;-77.198;2023-04-24T10:38:24;100406.34;;;33.11;10.79
50105;BME280;47690;39.202;-77.198;2023-04-24T10:40:32;100411.66;;;33.28;10.96
50105;BME280;47690;39.202;-77.198;2023-04-24T10:43:05;100416.47;;;33.33;10.87
50105;BME280;47690;39.202;-77.198;2023-04-24T10:45:39;100418.50;;;33.31;10.78
50105;BME280;47690;39.202;-77.198;2023-04-24T10:48:09;100426.84;;;33.28;10.76
50105;BME280;47690;39.202;-77.198;2023-04-24T10:50:46;100438.69;;;33.33;10.85
50105;BME280;47690;39.202;-77.198;2023-04-24T10:53:20;100428.84;;;33.25;11.00
50105;BME280;47690;39.202;-77.198;2023-04-24T10:56:12;100447.06;;;33.22;10.85
50105;BME280;47690;39.202;-77.198;2023-04-24T10:58:50;100445.19;;;33.39;11.31
50105;BME280;47690;39.202;-77.198;2023-04-24T11:01:30;100461.19;;;33.39;11.01
50105;BME280;47690;39.202;-77.198;2023-04-24T11:04:02;100461.53;;;33.36;10.80
50105;BME280;47690;39.202;-77.198;2023-04-24T11:06:33;100456.03;;;33.37;10.50
50105;BME280;47690;39.202;-77.198;2023-04-24T11:11:37;100455.38;;;33.52;10.56
50105;BME280;47690;39.202;-77.198;2023-04-24T11:14:09;100470.72;;;33.50;10.72
50105;BME280;47690;39.202;-77.198;2023-04-24T11:16:54;100460.34;;;33.63;10.88
50105;BME280;47690;39.202;-77.198;2023-04-24T11:19:27;100455.19;;;33.62;10.85
50105;BME280;47690;39.202;-77.198;2023-04-24T11:22:01;100453.50;;;34.26;10.64
50105;BME280;47690;39.202;-77.198;2023-04-24T11:25:01;100444.16;;;34.22;11.09
50105;BME280;47690;39.202;-77.198;2023-04-24T11:27:42;100452.53;;;34.10;10.93
50105;BME280;47690;39.202;-77.198;2023-04-24T11:30:17;100456.75;;;33.96;10.92
50105;BME280;47690;39.202;-77.198;2023-04-24T11:32:48;100460.41;;;34.12;10.80
50105;BME280;47690;39.202;-77.198;2023-04-24T11:35:20;100460.56;;;34.18;10.87
50105;BME280;47690;39.202;-77.198;2023-04-24T11:37:54;100465.81;;;34.35;10.63
50105;BME280;47690;39.202;-77.198;2023-04-24T11:40:25;100460.16;;;36.15;9.71
50105;BME280;47690;39.202;-77.198;2023-04-24T11:42:55;100474.38;;;34.54;10.68
50105;BME280;47690;39.202;-77.198;2023-04-24T11:45:29;100476.59;;;35.05;10.28
50105;BME280;47690;39.202;-77.198;2023-04-24T11:47:59;100475.69;;;34.66;10.77
50105;BME280;47690;39.202;-77.198;2023-04-24T11:50:28;100482.13;;;34.57;10.66
50105;BME280;47690;39.202;-77.198;2023-04-24T11:52:59;100479.31;;;34.73;10.51
50105;BME280;47690;39.202;-77.198;2023-04-24T11:55:29;100481.59;;;34.85;10.30
50105;BME280;47690;39.202;-77.198;2023-04-24T11:57:59;100487.91;;;34.92;10.61
50105;BME280;47690;39.202;-77.198;2023-04-24T12:00:31;100481.16;;;34.96;10.49
50105;BME280;47690;39.202;-77.198;2023-04-24T12:03:10;100478.63;;;35.03;10.56
50105;BME280;47690;39.202;-77.198;2023-04-24T12:05:46;100476.59;;;35.05;10.56
50105;BME280;47690;39.202;-77.198;2023-04-24T12:08:29;100479.00;;;35.23;10.37
50105;BME280;47690;39.202;-77.198;2023-04-24T12:11:00;100485.44;;;35.14;10.33
50105;BME280;47690;39.202;-77.198;2023-04-24T12:13:29;100485.31;;;35.07;10.33
50105;BME280;47690;39.202;-77.198;2023-04-24T12:16:01;100488.41;;;35.73;9.70
50105;BME280;47690;39.202;-77.198;2023-04-24T12:18:29;100492.50;;;35.45;9.91
50105;BME280;47690;39.202;-77.198;2023-04-24T12:21:35;100496.06;;;36.06;9.84
50105;BME280;47690;39.202;-77.198;2023-04-24T12:24:06;100487.50;;;35.65;9.86
50105;BME280;47690;39.202;-77.198;2023-04-24T12:26:36;100488.44;;;35.49;9.97
50105;BME280;47690;39.202;-77.198;2023-04-24T12:29:06;100482.16;;;35.42;10.17
50105;BME280;47690;39.202;-77.198;2023-04-24T12:31:37;100477.72;;;35.49;10.28
50105;BME280;47690;39.202;-77.198;2023-04-24T12:34:21;100476.59;;;35.82;10.16
50105;BME280;47690;39.202;-77.198;2023-04-24T12:36:51;100481.28;;;35.95;9.59
50105;BME280;47690;39.202;-77.198;2023-04-24T12:39:21;100475.94;;;35.95;9.96
50105;BME280;47690;39.202;-77.198;2023-04-24T12:41:58;100467.81;;;36.03;9.51
50105;BME280;47690;39.202;-77.198;2023-04-24T12:44:38;100467.44;;;36.06;9.34
50105;BME280;47690;39.202;-77.198;2023-04-24T12:47:08;100470.22;;;36.13;9.54
50105;BME280;47690;39.202;-77.198;2023-04-24T12:49:37;100473.00;;;36.20;9.75
50105;BME280;47690;39.202;-77.198;2023-04-24T12:52:07;100461.06;;;36.22;10.08
50105;BME280;47690;39.202;-77.198;2023-04-24T12:54:36;100465.97;;;36.19;9.72
50105;BME280;47690;39.202;-77.198;2023-04-24T12:57:05;100463.09;;;36.20;9.43
50105;BME280;47690;39.202;-77.198;2023-04-24T12:59:34;100466.53;;;36.14;9.65
50105;BME280;47690;39.202;-77.198;2023-04-24T13:02:05;100464.41;;;36.09;9.50
50105;BME280;47690;39.202;-77.198;2023-04-24T13:04:35;100470.66;;;36.17;9.60
50105;BME280;47690;39.202;-77.198;2023-04-24T13:07:05;100460.63;;;36.19;9.33
50105;BME280;47690;39.202;-77.198;2023-04-24T13:09:45;100461.31;;;36.28;9.75
50105;BME280;47690;39.202;-77.198;2023-04-24T13:12:18;100452.72;;;36.32;9.33
50105;BME280;47690;39.202;-77.198;2023-04-24T13:14:47;100458.09;;;36.32;9.37
50105;BME280;47690;39.202;-77.198;2023-04-24T13:17:18;100456.22;;;36.33;9.15
50105;BME280;47690;39.202;-77.198;2023-04-24T13:19:49;100457.56;;;36.44;9.55
50105;BME280;47690;39.202;-77.198;2023-04-24T13:22:33;100451.41;;;36.65;9.50
50105;BME280;47690;39.202;-77.198;2023-04-24T13:25:03;100453.16;;;36.73;9.11
50105;BME280;47690;39.202;-77.198;2023-04-24T13:27:41;100450.78;;;36.85;9.02
50105;BME280;47690;39.202;-77.198;2023-04-24T13:30:16;100449.75;;;36.86;9.59
50105;BME280;47690;39.202;-77.198;2023-04-24T13:32:45;100455.84;;;37.16;8.87